createdAt,value
2022-08-03T00:02:13.188Z,21.51
2022-08-03T00:04:35.222Z,21.45
2022-08-03T00:06:57.027Z,21.43
2022-08-03T00:09:18.969Z,21.40
2022-08-03T00:11:40.788Z,21.37
2022-08-03T00:14:04.527Z,21.34
2022-08-03T00:16:26.426Z,21.30
2022-08-03T00:18:48.325Z,21.27
2022-08-03T00:21:10.407Z,21.22
2022-08-03T00:23:52.096Z,21.15
2022-08-03T00:26:14.778Z,21.10
2022-08-03T00:28:36.593Z,21.08
2022-08-03T00:30:58.398Z,21.05
2022-08-03T00:33:20.259Z,21.02
2022-08-03T00:35:50.311Z,20.99
2022-08-03T00:38:13.013Z,20.97
2022-08-03T00:40:35.339Z,20.96
2022-08-03T00:43:04.721Z,20.97
2022-08-03T00:45:34.346Z,20.95
2022-08-03T00:47:57.052Z,20.92
2022-08-03T00:50:22.880Z,20.88
2022-08-03T00:52:45.603Z,20.82
2022-08-03T00:55:08.043Z,20.80
2022-08-03T00:57:32.625Z,20.77
2022-08-03T00:59:54.687Z,20.72
2022-08-03T01:02:16.871Z,20.69
2022-08-03T01:04:38.866Z,20.67
2022-08-03T01:07:21.872Z,20.66
2022-08-03T01:10:17.440Z,20.62
2022-08-03T01:12:48.712Z,20.55
2022-08-03T01:15:29.568Z,20.50
2022-08-03T01:18:18.666Z,20.47
2022-08-03T01:20:47.463Z,20.43
2022-08-03T01:23:57.174Z,20.39
2022-08-03T01:27:05.494Z,20.34
2022-08-03T01:30:07.639Z,20.30
2022-08-03T01:33:03.497Z,20.25
2022-08-03T01:35:38.303Z,20.21
2022-08-03T01:38:07.273Z,20.17
2022-08-03T01:40:34.416Z,20.13
2022-08-03T01:42:59.622Z,20.13
2022-08-03T01:45:22.882Z,20.10
2022-08-03T01:47:50.117Z,20.09
2022-08-03T01:50:14.948Z,20.07
2022-08-03T01:52:42.277Z,20.06
2022-08-03T01:55:07.195Z,20.06
2022-08-03T01:57:30.566Z,20.03
2022-08-03T01:59:55.947Z,20.04
2022-08-03T02:02:34.199Z,20.03
2022-08-03T02:05:00.459Z,20.02
2022-08-03T02:07:26.599Z,20.01
2022-08-03T02:09:52.765Z,20.01
2022-08-03T02:12:17.667Z,20.02
2022-08-03T02:14:43.678Z,20.02
2022-08-03T02:17:08.400Z,20.01
2022-08-03T02:19:35.723Z,19.98
2022-08-03T02:22:01.280Z,19.97
2022-08-03T02:24:24.183Z,19.94
2022-08-03T02:26:49.222Z,19.94
2022-08-03T02:29:21.567Z,19.92
2022-08-03T02:32:04.505Z,19.89
2022-08-03T02:34:29.811Z,19.87
2022-08-03T02:36:54.269Z,19.85
2022-08-03T02:39:20.777Z,19.84
2022-08-03T02:41:50.151Z,19.84
2022-08-03T02:44:14.893Z,19.84
2022-08-03T02:46:43.131Z,19.85
2022-08-03T02:49:40.595Z,19.87
2022-08-03T02:51:53.269Z,19.88
2022-08-03T02:54:19.911Z,19.88
2022-08-03T02:56:43.294Z,19.88
2022-08-03T02:59:07.834Z,19.89
2022-08-03T03:01:31.461Z,19.85
2022-08-03T03:03:57.450Z,19.82
2022-08-03T03:06:21.251Z,19.82
2022-08-03T03:08:47.264Z,19.83
2022-08-03T03:11:11.251Z,19.82
2022-08-03T03:13:34.105Z,19.80
2022-08-03T03:16:01.495Z,19.80
2022-08-03T03:18:25.399Z,19.82
2022-08-03T03:20:50.386Z,19.83
2022-08-03T03:23:14.688Z,19.83
2022-08-03T03:25:37.844Z,19.82
2022-08-03T03:28:02.926Z,19.81
2022-08-03T03:30:26.404Z,19.80
2022-08-03T03:32:48.982Z,19.80
2022-08-03T03:35:13.699Z,19.79
2022-08-03T03:37:35.970Z,19.80
2022-08-03T03:39:58.204Z,19.78
2022-08-03T03:42:20.876Z,19.79
2022-08-03T03:44:42.798Z,19.78
2022-08-03T03:47:04.886Z,19.77
2022-08-03T03:49:27.693Z,19.76
2022-08-03T03:51:54.920Z,19.77
2022-08-03T03:54:16.883Z,19.77
2022-08-03T03:56:38.725Z,19.77
2022-08-03T03:59:00.656Z,19.78
2022-08-03T04:01:23.273Z,19.78
2022-08-03T04:03:45.728Z,19.77
2022-08-03T04:06:26.666Z,19.76
2022-08-03T04:09:06.994Z,19.77
2022-08-03T04:11:38.320Z,19.79
2022-08-03T04:14:17.919Z,19.79
2022-08-03T04:16:47.138Z,19.80
2022-08-03T04:19:21.180Z,19.81
2022-08-03T04:21:51.897Z,19.82
2022-08-03T04:24:18.186Z,19.86
2022-08-03T04:26:43.261Z,19.90
2022-08-03T04:29:06.618Z,19.93
2022-08-03T04:31:30.656Z,19.95
2022-08-03T04:33:55.627Z,19.99
2022-08-03T04:36:23.661Z,20.00
2022-08-03T04:39:02.668Z,20.04
2022-08-03T04:41:27.688Z,20.04
2022-08-03T04:43:53.814Z,20.06
2022-08-03T04:46:16.453Z,20.07
2022-08-03T04:48:42.363Z,20.09
2022-08-03T04:51:06.672Z,20.12
2022-08-03T04:53:28.699Z,20.14
2022-08-03T04:55:50.592Z,20.16
2022-08-03T04:58:12.678Z,20.19
2022-08-03T05:00:34.939Z,20.23
2022-08-03T05:02:56.965Z,20.25
2022-08-03T05:05:18.982Z,20.28
2022-08-03T05:07:41.081Z,20.29
2022-08-03T05:10:14.846Z,20.33
2022-08-03T05:12:37.901Z,20.34
2022-08-03T05:15:00.844Z,20.37
2022-08-03T05:17:22.613Z,20.39
2022-08-03T05:19:44.449Z,20.42
2022-08-03T05:22:06.256Z,20.45
2022-08-03T05:24:28.042Z,20.47
2022-08-03T05:26:49.858Z,20.50
2022-08-03T05:29:11.695Z,20.54
2022-08-03T05:31:33.536Z,20.59
2022-08-03T05:33:57.102Z,20.63
2022-08-03T05:36:18.916Z,20.67
2022-08-03T05:38:40.717Z,20.71
2022-08-03T05:41:22.507Z,20.80
2022-08-03T05:43:46.957Z,20.90
2022-08-03T05:46:12.165Z,20.99
2022-08-03T05:48:34.897Z,21.08
2022-08-03T05:50:57.168Z,21.14
2022-08-03T05:53:19.195Z,21.23
2022-08-03T05:55:40.973Z,21.30
2022-08-03T05:58:03.903Z,21.37
2022-08-03T06:00:25.816Z,21.44
2022-08-03T06:02:47.780Z,21.51
2022-08-03T06:05:10.903Z,21.58
2022-08-03T06:07:33.358Z,21.65
2022-08-03T06:10:35.272Z,21.68
2022-08-03T06:12:37.353Z,21.73
2022-08-03T06:14:59.200Z,21.79
2022-08-03T06:17:21.005Z,21.86
2022-08-03T06:19:42.875Z,21.94
2022-08-03T06:22:05.173Z,22.04
2022-08-03T06:24:27.266Z,22.12
2022-08-03T06:26:51.616Z,22.21
2022-08-03T06:29:13.428Z,22.29
2022-08-03T06:31:35.236Z,22.34
2022-08-03T06:34:32.155Z,22.41
2022-08-03T06:36:39.449Z,22.47
2022-08-03T06:39:01.386Z,22.56
2022-08-03T06:41:23.251Z,22.63
2022-08-03T06:44:03.444Z,22.73
2022-08-03T06:46:26.174Z,22.88
2022-08-03T06:48:48.364Z,22.97
2022-08-03T06:51:10.644Z,23.10
2022-08-03T06:53:32.639Z,23.20
2022-08-03T06:55:55.337Z,23.34
2022-08-03T06:58:17.252Z,23.47
2022-08-03T07:00:39.180Z,23.61
2022-08-03T07:03:01.021Z,23.69
2022-08-03T07:05:23.110Z,23.72
2022-08-03T07:07:44.955Z,23.81
2022-08-03T07:10:08.896Z,23.90
2022-08-03T07:12:32.362Z,24.01
2022-08-03T07:15:00.375Z,24.16
2022-08-03T07:17:23.530Z,24.30
2022-08-03T07:19:45.454Z,24.38
2022-08-03T07:22:08.785Z,24.44
2022-08-03T07:24:30.711Z,24.50
2022-08-03T07:26:52.760Z,24.59
2022-08-03T07:29:15.349Z,24.65
2022-08-03T07:31:38.553Z,24.75
2022-08-03T07:34:00.341Z,24.90
2022-08-03T07:36:23.222Z,25.02
2022-08-03T07:38:45.012Z,25.08
2022-08-03T07:41:06.968Z,25.10
2022-08-03T07:43:28.792Z,25.16
2022-08-03T07:45:50.742Z,25.25
2022-08-03T07:48:12.889Z,25.32
2022-08-03T07:50:34.722Z,25.40
2022-08-03T07:52:57.908Z,25.48
2022-08-03T07:55:24.049Z,25.54
2022-08-03T07:57:46.286Z,25.57
2022-08-03T08:00:17.070Z,25.64
2022-08-03T08:02:39.077Z,25.70
2022-08-03T08:05:05.333Z,25.79
2022-08-03T08:07:27.625Z,25.93
2022-08-03T08:09:49.450Z,26.10
2022-08-03T08:12:15.131Z,26.18
2022-08-03T08:14:37.718Z,26.26
2022-08-03T08:17:00.293Z,26.35
2022-08-03T08:19:24.376Z,26.38
2022-08-03T08:21:53.872Z,26.46
2022-08-03T08:24:24.997Z,26.53
2022-08-03T08:26:46.969Z,26.59
2022-08-03T08:29:09.177Z,26.72
2022-08-03T08:31:31.069Z,26.82
2022-08-03T08:34:08.213Z,26.92
2022-08-03T08:36:30.017Z,26.99
2022-08-03T08:38:52.169Z,27.14
2022-08-03T08:41:15.280Z,27.28
2022-08-03T08:43:37.347Z,27.41
2022-08-03T08:46:00.146Z,27.54
2022-08-03T08:48:25.974Z,27.64
2022-08-03T08:50:52.353Z,27.70
2022-08-03T08:53:18.338Z,27.84
2022-08-03T08:55:59.019Z,27.90
2022-08-03T08:58:23.435Z,27.96
2022-08-03T09:00:45.797Z,28.03
2022-08-03T09:03:07.727Z,28.10
2022-08-03T09:05:55.012Z,28.18
2022-08-03T09:08:14.995Z,28.21
2022-08-03T09:10:36.912Z,28.25
2022-08-03T09:13:00.009Z,28.30
2022-08-03T09:15:33.136Z,28.36
2022-08-03T09:17:58.327Z,28.45
2022-08-03T09:20:22.243Z,28.58
2022-08-03T09:23:24.691Z,28.63
2022-08-03T09:25:47.239Z,28.72
2022-08-03T09:28:52.589Z,28.76
2022-08-03T09:31:00.616Z,28.78
2022-08-03T09:33:23.147Z,28.83
2022-08-03T09:35:57.489Z,28.90
2022-08-03T09:38:26.376Z,28.96
2022-08-03T09:40:48.395Z,29.03
2022-08-03T09:43:12.724Z,29.11
2022-08-03T09:45:36.737Z,29.20
2022-08-03T09:48:26.185Z,29.38
2022-08-03T09:50:51.072Z,29.51
2022-08-03T09:53:22.406Z,29.65
2022-08-03T09:56:34.856Z,29.77
2022-08-03T09:58:48.100Z,29.79
2022-08-03T10:01:23.631Z,29.78
2022-08-03T10:04:03.153Z,29.85
2022-08-03T10:06:29.001Z,29.94
2022-08-03T10:09:13.940Z,30.12
2022-08-03T10:11:41.806Z,30.20
2022-08-03T10:14:06.657Z,30.27
2022-08-03T10:16:38.006Z,30.32
2022-08-03T10:19:00.083Z,30.42
2022-08-03T10:21:22.558Z,30.52
2022-08-03T10:23:44.742Z,30.55
2022-08-03T10:26:12.241Z,30.65
2022-08-03T10:28:49.076Z,30.76
2022-08-03T10:31:14.072Z,30.82
2022-08-03T10:33:51.532Z,30.90
2022-08-03T10:36:16.887Z,31.02
2022-08-03T10:38:52.496Z,31.10
2022-08-03T10:41:20.472Z,31.05
2022-08-03T10:44:03.083Z,31.04
2022-08-03T10:46:27.579Z,31.07
2022-08-03T10:48:52.623Z,31.16
2022-08-03T10:51:15.658Z,31.30
2022-08-03T10:53:51.528Z,31.43
2022-08-03T10:56:58.627Z,31.52
2022-08-03T10:59:48.429Z,31.62
2022-08-03T11:02:10.277Z,31.73
2022-08-03T11:04:32.119Z,31.89
2022-08-03T11:07:16.600Z,32.03
2022-08-03T11:09:49.971Z,32.07
2022-08-03T11:12:32.516Z,31.98
2022-08-03T11:14:57.096Z,31.87
2022-08-03T11:17:19.772Z,31.81
2022-08-03T11:19:57.390Z,31.77
2022-08-03T11:22:22.238Z,31.66
2022-08-03T11:24:46.444Z,31.58
2022-08-03T11:27:14.804Z,31.60
2022-08-03T11:29:36.853Z,31.63
2022-08-03T11:31:58.778Z,31.71
2022-08-03T11:34:20.810Z,31.85
2022-08-03T11:37:28.720Z,32.14
2022-08-03T11:39:54.797Z,32.29
2022-08-03T11:42:23.408Z,32.33
2022-08-03T11:44:47.614Z,32.24
2022-08-03T11:47:17.745Z,32.12
2022-08-03T11:49:40.735Z,32.06
2022-08-03T11:52:02.904Z,32.07
2022-08-03T11:54:25.819Z,32.16
2022-08-03T11:56:51.014Z,32.35
2022-08-03T11:59:20.154Z,32.44
2022-08-03T12:01:42.860Z,32.55
2022-08-03T12:04:05.915Z,32.66
2022-08-03T12:06:27.752Z,32.72
2022-08-03T12:08:49.548Z,32.69
2022-08-03T12:11:15.351Z,32.70
2022-08-03T12:14:05.773Z,32.71
2022-08-03T12:16:25.577Z,32.72
2022-08-03T12:19:01.579Z,32.80
2022-08-03T12:21:24.751Z,32.73
2022-08-03T12:23:46.608Z,32.73
2022-08-03T12:26:10.391Z,32.80
2022-08-03T12:28:37.885Z,32.90
2022-08-03T12:31:07.906Z,32.92
2022-08-03T12:33:30.324Z,32.83
2022-08-03T12:36:11.086Z,32.84
2022-08-03T12:38:37.543Z,32.84
2022-08-03T12:41:16.712Z,32.91
2022-08-03T12:43:39.868Z,32.95
2022-08-03T12:46:14.889Z,32.85
2022-08-03T12:48:36.945Z,32.79
2022-08-03T12:51:11.794Z,32.83
2022-08-03T12:53:33.589Z,32.93
2022-08-03T12:56:05.767Z,33.01
2022-08-03T12:58:36.352Z,33.00
2022-08-03T13:00:58.241Z,33.04
2022-08-03T13:03:39.008Z,33.15
2022-08-03T13:06:02.183Z,33.25
2022-08-03T13:08:25.880Z,33.22
2022-08-03T13:10:48.565Z,33.28
2022-08-03T13:13:10.823Z,33.45
2022-08-03T13:15:33.531Z,33.58
2022-08-03T13:18:00.622Z,33.67
2022-08-03T13:20:23.976Z,33.76
2022-08-03T13:22:49.028Z,33.72
2022-08-03T13:25:10.814Z,33.73
2022-08-03T13:28:03.487Z,33.62
2022-08-03T13:30:27.526Z,33.58
2022-08-03T13:32:52.145Z,33.72
2022-08-03T13:35:16.619Z,33.82
2022-08-03T13:37:38.971Z,33.80
2022-08-03T13:40:05.519Z,33.70
2022-08-03T13:42:30.683Z,33.71
2022-08-03T13:44:52.614Z,33.68
2022-08-03T13:47:14.438Z,33.66
2022-08-03T13:49:37.390Z,33.64
2022-08-03T13:51:59.402Z,33.80
2022-08-03T13:54:21.247Z,33.97
2022-08-03T13:56:48.820Z,34.07
2022-08-03T13:59:11.070Z,34.08
2022-08-03T14:01:54.192Z,34.01
2022-08-03T14:04:21.817Z,33.98
2022-08-03T14:06:45.912Z,34.13
2022-08-03T14:09:07.908Z,34.24
2022-08-03T14:12:07.570Z,34.15
2022-08-03T14:14:12.685Z,34.21
2022-08-03T14:16:35.896Z,34.29
2022-08-03T14:18:57.779Z,34.37
2022-08-03T14:21:20.473Z,34.44
2022-08-03T14:23:42.352Z,34.49
2022-08-03T14:26:08.506Z,34.41
2022-08-03T14:28:30.289Z,34.33
2022-08-03T14:30:54.492Z,34.33
2022-08-03T14:33:16.479Z,34.35
2022-08-03T14:35:38.683Z,34.32
2022-08-03T14:38:00.515Z,34.28
2022-08-03T14:40:22.523Z,34.33
2022-08-03T14:42:44.573Z,34.32
2022-08-03T14:45:09.631Z,34.36
2022-08-03T14:50:30.653Z,34.34
2022-08-03T14:50:31.052Z,34.38
2022-08-03T14:53:05.171Z,34.30
2022-08-03T14:55:27.405Z,34.14
2022-08-03T14:58:02.897Z,34.15
2022-08-03T15:00:24.826Z,34.10
2022-08-03T15:02:46.703Z,34.05
2022-08-03T15:05:10.791Z,34.03
2022-08-03T15:07:32.791Z,34.02
2022-08-03T15:09:55.143Z,34.02
2022-08-03T15:12:17.014Z,33.96
2022-08-03T15:14:39.114Z,33.79
2022-08-03T15:17:01.587Z,33.91
2022-08-03T15:20:01.077Z,34.05
2022-08-03T15:22:05.366Z,34.18
2022-08-03T15:24:31.020Z,34.37
2022-08-03T15:26:53.378Z,34.52
2022-08-03T15:30:05.082Z,34.57
2022-08-03T15:31:57.271Z,34.49
2022-08-03T15:34:19.085Z,34.43
2022-08-03T15:36:40.985Z,34.34
2022-08-03T15:39:04.570Z,34.34
2022-08-03T15:41:26.553Z,34.42
2022-08-03T15:43:48.390Z,34.45
2022-08-03T15:46:28.837Z,34.47
2022-08-03T15:48:51.501Z,34.49
2022-08-03T15:51:13.699Z,34.56
2022-08-03T15:53:36.721Z,34.69
2022-08-03T15:55:59.387Z,34.79
2022-08-03T15:59:10.240Z,34.82
2022-08-03T16:01:06.365Z,34.72
2022-08-03T16:03:34.205Z,34.52
2022-08-03T16:05:56.065Z,34.27
2022-08-03T16:08:17.840Z,34.17
2022-08-03T16:10:40.627Z,34.04
2022-08-03T16:13:02.564Z,33.89
2022-08-03T16:15:24.833Z,33.98
2022-08-03T16:17:46.691Z,34.04
2022-08-03T16:20:30.949Z,34.05
2022-08-03T16:22:53.129Z,34.12
2022-08-03T16:25:17.421Z,34.14
2022-08-03T16:28:03.263Z,34.24
2022-08-03T16:30:21.647Z,34.26
2022-08-03T16:32:45.523Z,34.25
2022-08-03T16:35:08.508Z,34.29
2022-08-03T16:37:39.235Z,34.35
2022-08-03T16:40:02.015Z,34.40
2022-08-03T16:42:23.893Z,34.38
2022-08-03T16:44:45.696Z,34.38
2022-08-03T16:47:07.513Z,34.37
2022-08-03T16:49:54.657Z,34.37
2022-08-03T16:52:18.238Z,34.40
2022-08-03T16:54:40.783Z,34.40
2022-08-03T16:57:02.808Z,34.37
2022-08-03T16:59:36.025Z,34.28
2022-08-03T17:02:00.146Z,34.17
2022-08-03T17:04:22.098Z,34.05
2022-08-03T17:06:45.389Z,34.04
2022-08-03T17:09:18.924Z,34.04
2022-08-03T17:11:47.151Z,34.04
2022-08-03T17:14:12.227Z,33.95
2022-08-03T17:16:34.548Z,33.76
2022-08-03T17:19:05.738Z,33.69
2022-08-03T17:21:32.419Z,33.59
2022-08-03T17:24:41.021Z,33.33
2022-08-03T17:28:42.395Z,32.96
2022-08-03T17:30:00.886Z,32.68
2022-08-03T17:32:26.244Z,32.53
2022-08-03T17:34:49.239Z,32.42
2022-08-03T17:37:27.230Z,32.31
2022-08-03T17:39:59.065Z,32.21
2022-08-03T17:42:30.381Z,32.24
2022-08-03T17:44:56.260Z,32.27
2022-08-03T17:47:19.211Z,32.35
2022-08-03T17:49:43.445Z,32.36
2022-08-03T17:52:19.701Z,32.34
2022-08-03T17:55:56.581Z,32.30
2022-08-03T17:58:03.297Z,32.23
2022-08-03T18:00:45.359Z,32.27
2022-08-03T18:03:58.245Z,32.31
2022-08-03T18:06:28.843Z,32.40
2022-08-03T18:08:55.368Z,32.40
2022-08-03T18:11:22.820Z,32.38
2022-08-03T18:14:16.559Z,32.30
2022-08-03T18:16:52.277Z,32.16
2022-08-03T18:19:15.860Z,32.10
2022-08-03T18:22:03.382Z,32.08
2022-08-03T18:24:25.787Z,32.00
2022-08-03T18:26:50.032Z,31.90
2022-08-03T18:29:13.875Z,32.00
2022-08-03T18:32:02.822Z,32.18
2022-08-03T18:34:32.839Z,32.41
2022-08-03T18:37:07.291Z,32.62
2022-08-03T18:39:31.779Z,32.71
2022-08-03T18:41:54.428Z,32.69
2022-08-03T18:44:53.044Z,32.59
2022-08-03T18:47:16.574Z,32.46
2022-08-03T18:50:00.811Z,32.29
2022-08-03T18:52:42.069Z,32.00
2022-08-03T18:55:33.751Z,31.64
2022-08-03T18:58:17.934Z,31.22
2022-08-03T19:01:58.401Z,30.81
2022-08-03T19:04:49.685Z,30.51
2022-08-03T19:07:22.154Z,30.33
2022-08-03T19:09:55.383Z,30.15
2022-08-03T19:12:30.761Z,30.00
2022-08-03T19:15:06.248Z,29.86
2022-08-03T19:17:41.831Z,29.72
2022-08-03T19:20:06.101Z,29.62
2022-08-03T19:22:28.305Z,29.54
2022-08-03T19:24:55.163Z,29.47
2022-08-03T19:27:20.295Z,29.35
2022-08-03T19:29:58.906Z,29.22
2022-08-03T19:32:24.487Z,29.10
2022-08-03T19:34:51.310Z,29.01
2022-08-03T19:37:15.452Z,28.96
2022-08-03T19:39:37.430Z,28.89
2022-08-03T19:42:18.477Z,28.79
2022-08-03T19:44:51.229Z,28.66
2022-08-03T19:47:33.832Z,28.55
2022-08-03T19:50:05.909Z,28.47
2022-08-03T19:52:39.338Z,28.39
2022-08-03T19:55:09.710Z,28.36
2022-08-03T19:57:37.753Z,28.29
2022-08-03T20:00:03.540Z,28.22
2022-08-03T20:02:29.645Z,28.17
2022-08-03T20:04:51.842Z,28.11
2022-08-03T20:07:20.626Z,28.07
2022-08-03T20:09:46.380Z,28.01
2022-08-03T20:12:16.804Z,27.95
2022-08-03T20:14:40.448Z,27.88
2022-08-03T20:17:04.297Z,27.83
2022-08-03T20:19:32.607Z,27.74
2022-08-03T20:21:54.911Z,27.68
2022-08-03T20:24:27.019Z,27.63
2022-08-03T20:26:54.520Z,27.57
2022-08-03T20:29:42.728Z,27.52
2022-08-03T20:32:10.231Z,27.43
2022-08-03T20:34:32.168Z,27.38
2022-08-03T20:36:54.205Z,27.30
2022-08-03T20:39:16.191Z,27.25
2022-08-03T20:41:38.250Z,27.20
2022-08-03T20:44:01.005Z,27.14
2022-08-03T20:46:32.187Z,27.10
2022-08-03T20:49:03.852Z,27.03
2022-08-03T20:51:49.602Z,26.99
2022-08-03T20:54:22.583Z,26.94
2022-08-03T20:56:52.756Z,26.88
2022-08-03T20:59:15.322Z,26.83
2022-08-03T21:01:37.979Z,26.78
2022-08-03T21:04:00.337Z,26.72
2022-08-03T21:06:37.493Z,26.68
2022-08-03T21:09:06.798Z,26.64
2022-08-03T21:11:44.363Z,26.59
2022-08-03T21:14:39.332Z,26.55
2022-08-03T21:17:14.069Z,26.50
2022-08-03T21:19:52.103Z,26.46
2022-08-03T21:22:22.982Z,26.37
2022-08-03T21:24:49.446Z,26.29
2022-08-03T21:27:14.979Z,26.21
2022-08-03T21:29:53.230Z,26.18
2022-08-03T21:32:32.911Z,26.13
2022-08-03T21:34:57.192Z,26.08
2022-08-03T21:37:18.986Z,26.02
2022-08-03T21:39:50.566Z,25.96
2022-08-03T21:42:13.876Z,25.88
2022-08-03T21:44:35.689Z,25.84
2022-08-03T21:47:00.935Z,25.81
2022-08-03T21:50:05.661Z,25.76
2022-08-03T21:52:09.397Z,25.72
2022-08-03T21:54:41.421Z,25.68
2022-08-03T21:57:12.999Z,25.61
2022-08-03T21:59:41.435Z,25.54
2022-08-03T22:02:04.442Z,25.46
2022-08-03T22:04:38.060Z,25.38
2022-08-03T22:07:09.648Z,25.27
2022-08-03T22:09:34.189Z,25.18
2022-08-03T22:11:56.170Z,25.10
2022-08-03T22:14:18.139Z,25.04
2022-08-03T22:16:41.267Z,24.97
2022-08-03T22:19:03.249Z,24.92
2022-08-03T22:21:36.386Z,24.88
2022-08-03T22:24:00.553Z,24.83
2022-08-03T22:26:34.963Z,24.81
2022-08-03T22:28:59.690Z,24.78
2022-08-03T22:31:37.613Z,24.75
2022-08-03T22:34:03.940Z,24.73
2022-08-03T22:36:26.152Z,24.72
2022-08-03T22:38:48.568Z,24.70
2022-08-03T22:41:10.824Z,24.69
2022-08-03T22:43:36.926Z,24.66
2022-08-03T22:46:09.160Z,24.66
2022-08-03T22:48:40.813Z,24.63
2022-08-03T22:51:05.435Z,24.61
2022-08-03T22:53:27.988Z,24.58
2022-08-03T22:55:51.890Z,24.56
2022-08-03T22:58:15.995Z,24.53
2022-08-03T23:00:47.513Z,24.52
2022-08-03T23:03:20.149Z,24.49
2022-08-03T23:06:01.377Z,24.47
2022-08-03T23:08:27.548Z,24.45
2022-08-03T23:10:52.430Z,24.42
2022-08-03T23:13:19.612Z,24.41
2022-08-03T23:15:42.526Z,24.38
2022-08-03T23:18:06.423Z,24.35
2022-08-03T23:20:30.048Z,24.33
2022-08-03T23:22:54.449Z,24.29
2022-08-03T23:25:17.432Z,24.28
2022-08-03T23:27:42.226Z,24.27
2022-08-03T23:30:04.496Z,24.27
2022-08-03T23:32:28.902Z,24.26
2022-08-03T23:35:11.123Z,24.24
2022-08-03T23:37:33.425Z,24.21
2022-08-03T23:40:16.100Z,24.19
2022-08-03T23:42:39.466Z,24.18
2022-08-03T23:45:05.982Z,24.17
2022-08-03T23:47:46.477Z,24.14
2022-08-03T23:50:09.553Z,24.10
2022-08-03T23:52:56.835Z,24.07
2022-08-03T23:55:45.798Z,24.03
2022-08-03T23:58:47.345Z,23.98
